sensor_id;sensor_type;location;lat;lon;timestamp;P1;durP1;ratioP1;P2;durP2;ratioP2
28796;SDS011;24974;54.444;18.560;2023-03-31T06:18:39;18.00;;;12.27;;
28796;SDS011;24974;54.444;18.560;2023-03-31T06:21:14;17.45;;;11.63;;
28796;SDS011;24974;54.444;18.560;2023-03-31T06:23:46;18.77;;;11.32;;
28796;SDS011;24974;54.444;18.560;2023-03-31T06:26:18;17.42;;;11.43;;
28796;SDS011;24974;54.444;18.560;2023-03-31T06:28:48;19.17;;;11.60;;
28796;SDS011;24974;54.444;18.560;2023-03-31T06:31:20;18.02;;;11.20;;
28796;SDS011;24974;54.444;18.560;2023-03-31T06:33:52;15.88;;;10.88;;
28796;SDS011;24974;54.444;18.560;2023-03-31T06:36:23;17.50;;;12.60;;
28796;SDS011;24974;54.444;18.560;2023-03-31T06:38:54;15.05;;;11.57;;
28796;SDS011;24974;54.444;18.560;2023-03-31T06:41:25;18.33;;;11.20;;
28796;SDS011;24974;54.444;18.560;2023-03-31T06:43:55;18.55;;;11.60;;
28796;SDS011;24974;54.444;18.560;2023-03-31T06:46:26;18.88;;;11.50;;
28796;SDS011;24974;54.444;18.560;2023-03-31T06:48:57;18.00;;;11.95;;
28796;SDS011;24974;54.444;18.560;2023-03-31T06:51:28;15.63;;;10.52;;
28796;SDS011;24974;54.444;18.560;2023-03-31T06:53:59;18.98;;;11.48;;
28796;SDS011;24974;54.444;18.560;2023-03-31T06:56:30;16.15;;;11.98;;
28796;SDS011;24974;54.444;18.560;2023-03-31T06:59:01;12.88;;;11.55;;
28796;SDS011;24974;54.444;18.560;2023-03-31T07:01:31;17.85;;;11.45;;
28796;SDS011;24974;54.444;18.560;2023-03-31T07:04:06;19.73;;;12.45;;
28796;SDS011;24974;54.444;18.560;2023-03-31T07:06:37;14.45;;;11.18;;
28796;SDS011;24974;54.444;18.560;2023-03-31T07:09:08;20.30;;;11.65;;
28796;SDS011;24974;54.444;18.560;2023-03-31T07:11:39;17.02;;;13.10;;
28796;SDS011;24974;54.444;18.560;2023-03-31T07:14:10;18.38;;;11.27;;
28796;SDS011;24974;54.444;18.560;2023-03-31T07:16:40;21.17;;;12.40;;
28796;SDS011;24974;54.444;18.560;2023-03-31T07:19:11;17.80;;;12.40;;
28796;SDS011;24974;54.444;18.560;2023-03-31T07:21:42;25.58;;;12.88;;
28796;SDS011;24974;54.444;18.560;2023-03-31T07:24:13;23.00;;;14.75;;
28796;SDS011;24974;54.444;18.560;2023-03-31T07:26:44;20.65;;;15.13;;
28796;SDS011;24974;54.444;18.560;2023-03-31T07:29:15;22.95;;;14.13;;
28796;SDS011;24974;54.444;18.560;2023-03-31T07:31:46;18.92;;;13.95;;
28796;SDS011;24974;54.444;18.560;2023-03-31T07:34:17;20.48;;;15.25;;
28796;SDS011;24974;54.444;18.560;2023-03-31T07:36:48;22.48;;;15.18;;
28796;SDS011;24974;54.444;18.560;2023-03-31T07:39:19;26.33;;;16.08;;
28796;SDS011;24974;54.444;18.560;2023-03-31T07:41:49;29.88;;;15.73;;
28796;SDS011;24974;54.444;18.560;2023-03-31T07:44:20;28.92;;;15.70;;
28796;SDS011;24974;54.444;18.560;2023-03-31T07:46:52;23.42;;;15.40;;
28796;SDS011;24974;54.444;18.560;2023-03-31T07:49:23;21.70;;;15.00;;
28796;SDS011;24974;54.444;18.560;2023-03-31T07:51:54;20.88;;;14.75;;
28796;SDS011;24974;54.444;18.560;2023-03-31T07:54:25;21.70;;;14.43;;
28796;SDS011;24974;54.444;18.560;2023-03-31T07:56:56;21.70;;;14.13;;
28796;SDS011;24974;54.444;18.560;2023-03-31T07:59:31;23.70;;;12.85;;
28796;SDS011;24974;54.444;18.560;2023-03-31T08:02:01;19.83;;;12.15;;
28796;SDS011;24974;54.444;18.560;2023-03-31T08:04:32;15.05;;;9.98;;
28796;SDS011;24974;54.444;18.560;2023-03-31T08:07:03;16.70;;;10.00;;
28796;SDS011;24974;54.444;18.560;2023-03-31T08:09:34;14.57;;;10.43;;
28796;SDS011;24974;54.444;18.560;2023-03-31T08:12:05;17.17;;;9.25;;
28796;SDS011;24974;54.444;18.560;2023-03-31T08:14:36;15.20;;;10.07;;
28796;SDS011;24974;54.444;18.560;2023-03-31T08:17:08;14.95;;;8.85;;
28796;SDS011;24974;54.444;18.560;2023-03-31T08:19:40;15.05;;;8.85;;
28796;SDS011;24974;54.444;18.560;2023-03-31T08:22:10;16.90;;;9.48;;
28796;SDS011;24974;54.444;18.560;2023-03-31T08:24:41;15.35;;;9.88;;
28796;SDS011;24974;54.444;18.560;2023-03-31T08:27:12;16.48;;;9.82;;
28796;SDS011;24974;54.444;18.560;2023-03-31T08:29:43;15.10;;;10.38;;
28796;SDS011;24974;54.444;18.560;2023-03-31T08:32:14;17.38;;;10.20;;
28796;SDS011;24974;54.444;18.560;2023-03-31T08:34:45;18.70;;;10.45;;
28796;SDS011;24974;54.444;18.560;2023-03-31T08:37:15;15.52;;;10.98;;
28796;SDS011;24974;54.444;18.560;2023-03-31T08:39:46;20.38;;;12.35;;
28796;SDS011;24974;54.444;18.560;2023-03-31T08:42:23;15.18;;;9.80;;
28796;SDS011;24974;54.444;18.560;2023-03-31T08:48:35;16.38;;;9.25;;
28796;SDS011;24974;54.444;18.560;2023-03-31T08:50:57;12.80;;;8.13;;
28796;SDS011;24974;54.444;18.560;2023-03-31T08:53:40;14.30;;;8.35;;
28796;SDS011;24974;54.444;18.560;2023-03-31T08:56:18;14.25;;;7.93;;
28796;SDS011;24974;54.444;18.560;2023-03-31T08:58:52;12.45;;;6.80;;
28796;SDS011;24974;54.444;18.560;2023-03-31T09:07:10;12.27;;;6.90;;
28796;SDS011;24974;54.444;18.560;2023-03-31T09:10:09;10.77;;;6.20;;
28796;SDS011;24974;54.444;18.560;2023-03-31T09:18:17;10.05;;;6.43;;
28796;SDS011;24974;54.444;18.560;2023-03-31T09:21:03;9.20;;;5.20;;
28796;SDS011;24974;54.444;18.560;2023-03-31T09:23:43;12.60;;;4.80;;
28796;SDS011;24974;54.444;18.560;2023-03-31T09:26:26;7.65;;;4.88;;
28796;SDS011;24974;54.444;18.560;2023-03-31T09:29:05;6.45;;;4.00;;
28796;SDS011;24974;54.444;18.560;2023-03-31T09:31:44;8.20;;;4.43;;
28796;SDS011;24974;54.444;18.560;2023-03-31T09:34:18;9.88;;;4.35;;
28796;SDS011;24974;54.444;18.560;2023-03-31T09:36:57;11.85;;;4.50;;
28796;SDS011;24974;54.444;18.560;2023-03-31T09:39:28;8.75;;;3.92;;
28796;SDS011;24974;54.444;18.560;2023-03-31T09:41:59;7.60;;;3.80;;
28796;SDS011;24974;54.444;18.560;2023-03-31T09:44:36;7.18;;;3.55;;
28796;SDS011;24974;54.444;18.560;2023-03-31T09:47:11;6.85;;;3.58;;
28796;SDS011;24974;54.444;18.560;2023-03-31T09:49:46;8.02;;;3.40;;
28796;SDS011;24974;54.444;18.560;2023-03-31T09:58:18;7.32;;;3.47;;
28796;SDS011;24974;54.444;18.560;2023-03-31T10:01:00;10.30;;;4.18;;
28796;SDS011;24974;54.444;18.560;2023-03-31T10:03:40;9.35;;;4.15;;
28796;SDS011;24974;54.444;18.560;2023-03-31T10:06:15;10.48;;;4.20;;
28796;SDS011;24974;54.444;18.560;2023-03-31T10:08:49;10.32;;;4.35;;
28796;SDS011;24974;54.444;18.560;2023-03-31T10:11:24;10.38;;;4.50;;
28796;SDS011;24974;54.444;18.560;2023-03-31T10:14:01;10.43;;;4.60;;
28796;SDS011;24974;54.444;18.560;2023-03-31T10:17:10;10.30;;;4.65;;
28796;SDS011;24974;54.444;18.560;2023-03-31T10:19:34;9.75;;;4.95;;
28796;SDS011;24974;54.444;18.560;2023-03-31T10:25:06;8.45;;;4.97;;
28796;SDS011;24974;54.444;18.560;2023-03-31T10:27:40;8.80;;;4.50;;
28796;SDS011;24974;54.444;18.560;2023-03-31T10:30:18;8.82;;;4.57;;
28796;SDS011;24974;54.444;18.560;2023-03-31T10:32:52;6.57;;;3.67;;
28796;SDS011;24974;54.444;18.560;2023-03-31T10:35:28;8.13;;;3.95;;
28796;SDS011;24974;54.444;18.560;2023-03-31T10:38:03;6.13;;;3.47;;
28796;SDS011;24974;54.444;18.560;2023-03-31T10:40:54;9.65;;;3.50;;
28796;SDS011;24974;54.444;18.560;2023-03-31T10:43:27;8.05;;;3.50;;
28796;SDS011;24974;54.444;18.560;2023-03-31T10:46:02;8.38;;;3.50;;
28796;SDS011;24974;54.444;18.560;2023-03-31T10:48:34;8.38;;;3.35;;
28796;SDS011;24974;54.444;18.560;2023-03-31T10:51:24;4.70;;;2.70;;
28796;SDS011;24974;54.444;18.560;2023-03-31T10:53:59;6.72;;;2.95;;
28796;SDS011;24974;54.444;18.560;2023-03-31T11:22:08;11.40;;;4.20;;
28796;SDS011;24974;54.444;18.560;2023-03-31T11:30:26;9.88;;;5.10;;
28796;SDS011;24974;54.444;18.560;2023-03-31T11:41:18;14.15;;;5.35;;
28796;SDS011;24974;54.444;18.560;2023-03-31T11:43:52;15.57;;;5.55;;
28796;SDS011;24974;54.444;18.560;2023-03-31T11:51:47;9.98;;;4.28;;
28796;SDS011;24974;54.444;18.560;2023-03-31T11:54:27;8.02;;;3.42;;
28796;SDS011;24974;54.444;18.560;2023-03-31T11:57:01;6.50;;;2.90;;
28796;SDS011;24974;54.444;18.560;2023-03-31T11:59:40;6.80;;;2.58;;
28796;SDS011;24974;54.444;18.560;2023-03-31T12:02:21;7.13;;;2.72;;
28796;SDS011;24974;54.444;18.560;2023-03-31T12:04:56;6.38;;;2.50;;
28796;SDS011;24974;54.444;18.560;2023-03-31T12:07:47;7.38;;;2.58;;
28796;SDS011;24974;54.444;18.560;2023-03-31T12:16:14;7.22;;;3.08;;
28796;SDS011;24974;54.444;18.560;2023-03-31T12:21:46;5.97;;;2.42;;
28796;SDS011;24974;54.444;18.560;2023-03-31T12:24:20;7.35;;;3.20;;
28796;SDS011;24974;54.444;18.560;2023-03-31T12:29:58;5.53;;;2.67;;
28796;SDS011;24974;54.444;18.560;2023-03-31T12:32:33;3.17;;;2.55;;
28796;SDS011;24974;54.444;18.560;2023-03-31T12:35:19;4.75;;;2.78;;
28796;SDS011;24974;54.444;18.560;2023-03-31T12:40:54;8.00;;;3.13;;
28796;SDS011;24974;54.444;18.560;2023-03-31T13:06:56;12.13;;;5.80;;
28796;SDS011;24974;54.444;18.560;2023-03-31T13:12:06;9.75;;;5.07;;
28796;SDS011;24974;54.444;18.560;2023-03-31T13:14:57;10.60;;;4.50;;
28796;SDS011;24974;54.444;18.560;2023-03-31T13:17:30;13.45;;;5.45;;
28796;SDS011;24974;54.444;18.560;2023-03-31T13:23:01;12.48;;;6.63;;
28796;SDS011;24974;54.444;18.560;2023-03-31T13:31:13;14.13;;;6.68;;
28796;SDS011;24974;54.444;18.560;2023-03-31T13:33:50;12.73;;;6.80;;
28796;SDS011;24974;54.444;18.560;2023-03-31T13:39:49;15.38;;;9.40;;
28796;SDS011;24974;54.444;18.560;2023-03-31T13:42:13;19.52;;;9.35;;
28796;SDS011;24974;54.444;18.560;2023-03-31T13:47:47;23.05;;;9.52;;
28796;SDS011;24974;54.444;18.560;2023-03-31T13:50:44;18.60;;;10.20;;
28796;SDS011;24974;54.444;18.560;2023-03-31T14:05:24;17.55;;;10.80;;
28796;SDS011;24974;54.444;18.560;2023-03-31T14:11:30;17.15;;;11.07;;
28796;SDS011;24974;54.444;18.560;2023-03-31T14:14:04;20.38;;;12.48;;
28796;SDS011;24974;54.444;18.560;2023-03-31T14:16:37;16.48;;;11.65;;
28796;SDS011;24974;54.444;18.560;2023-03-31T14:39:02;23.27;;;12.45;;
28796;SDS011;24974;54.444;18.560;2023-03-31T14:41:35;18.02;;;12.90;;
28796;SDS011;24974;54.444;18.560;2023-03-31T14:44:10;16.95;;;13.02;;
28796;SDS011;24974;54.444;18.560;2023-03-31T14:46:45;20.80;;;13.43;;
28796;SDS011;24974;54.444;18.560;2023-03-31T14:51:59;19.48;;;14.55;;
28796;SDS011;24974;54.444;18.560;2023-03-31T14:54:34;21.30;;;14.65;;
28796;SDS011;24974;54.444;18.560;2023-03-31T14:57:08;20.08;;;13.48;;
28796;SDS011;24974;54.444;18.560;2023-03-31T14:59:42;21.92;;;15.05;;
28796;SDS011;24974;54.444;18.560;2023-03-31T15:02:25;22.83;;;16.23;;
28796;SDS011;24974;54.444;18.560;2023-03-31T15:05:04;21.35;;;14.88;;
28796;SDS011;24974;54.444;18.560;2023-03-31T15:07:39;18.92;;;14.98;;
28796;SDS011;24974;54.444;18.560;2023-03-31T15:10:15;20.92;;;15.02;;
28796;SDS011;24974;54.444;18.560;2023-03-31T15:12:49;21.90;;;15.25;;
28796;SDS011;24974;54.444;18.560;2023-03-31T15:15:21;23.00;;;15.80;;
28796;SDS011;24974;54.444;18.560;2023-03-31T15:17:52;21.05;;;14.95;;
28796;SDS011;24974;54.444;18.560;2023-03-31T15:20:30;22.25;;;14.63;;
28796;SDS011;24974;54.444;18.560;2023-03-31T15:25:57;24.58;;;17.02;;
28796;SDS011;24974;54.444;18.560;2023-03-31T15:28:37;29.80;;;17.20;;
28796;SDS011;24974;54.444;18.560;2023-03-31T15:31:16;26.30;;;17.05;;
28796;SDS011;24974;54.444;18.560;2023-03-31T15:33:48;29.45;;;16.63;;
28796;SDS011;24974;54.444;18.560;2023-03-31T15:36:19;33.67;;;18.63;;
28796;SDS011;24974;54.444;18.560;2023-03-31T15:38:56;33.95;;;18.50;;
28796;SDS011;24974;54.444;18.560;2023-03-31T15:41:29;39.03;;;20.83;;
28796;SDS011;24974;54.444;18.560;2023-03-31T15:44:05;34.88;;;19.20;;
28796;SDS011;24974;54.444;18.560;2023-03-31T15:49:21;32.28;;;18.83;;
28796;SDS011;24974;54.444;18.560;2023-03-31T15:51:54;39.83;;;21.70;;
28796;SDS011;24974;54.444;18.560;2023-03-31T15:54:39;38.08;;;21.23;;
28796;SDS011;24974;54.444;18.560;2023-03-31T15:57:13;39.85;;;22.17;;
28796;SDS011;24974;54.444;18.560;2023-03-31T15:59:49;38.25;;;22.00;;
28796;SDS011;24974;54.444;18.560;2023-03-31T16:02:38;44.45;;;24.90;;
28796;SDS011;24974;54.444;18.560;2023-03-31T16:05:22;41.35;;;23.30;;
28796;SDS011;24974;54.444;18.560;2023-03-31T16:08:11;40.83;;;22.58;;
28796;SDS011;24974;54.444;18.560;2023-03-31T16:11:10;37.92;;;21.48;;
28796;SDS011;24974;54.444;18.560;2023-03-31T16:13:45;34.35;;;20.30;;
28796;SDS011;24974;54.444;18.560;2023-03-31T16:16:22;36.75;;;24.35;;
28796;SDS011;24974;54.444;18.560;2023-03-31T16:19:01;25.70;;;16.67;;
28796;SDS011;24974;54.444;18.560;2023-03-31T16:21:45;26.73;;;15.40;;
28796;SDS011;24974;54.444;18.560;2023-03-31T16:24:27;27.05;;;16.35;;
28796;SDS011;24974;54.444;18.560;2023-03-31T16:27:01;25.08;;;16.77;;
28796;SDS011;24974;54.444;18.560;2023-03-31T16:29:36;26.98;;;18.00;;
28796;SDS011;24974;54.444;18.560;2023-03-31T16:32:17;39.25;;;22.15;;
28796;SDS011;24974;54.444;18.560;2023-03-31T16:34:50;25.80;;;16.63;;
28796;SDS011;24974;54.444;18.560;2023-03-31T16:37:22;35.40;;;19.48;;
28796;SDS011;24974;54.444;18.560;2023-03-31T16:39:55;32.40;;;16.77;;
28796;SDS011;24974;54.444;18.560;2023-03-31T16:42:26;40.33;;;20.92;;
28796;SDS011;24974;54.444;18.560;2023-03-31T16:44:57;37.42;;;25.08;;
28796;SDS011;24974;54.444;18.560;2023-03-31T16:47:28;41.70;;;19.75;;
28796;SDS011;24974;54.444;18.560;2023-03-31T16:49:59;51.85;;;18.00;;
28796;SDS011;24974;54.444;18.560;2023-03-31T16:52:30;51.63;;;19.67;;
28796;SDS011;24974;54.444;18.560;2023-03-31T16:55:01;61.50;;;19.95;;
28796;SDS011;24974;54.444;18.560;2023-03-31T16:57:32;67.10;;;22.55;;
28796;SDS011;24974;54.444;18.560;2023-03-31T17:00:02;100.22;;;23.42;;
28796;SDS011;24974;54.444;18.560;2023-03-31T17:02:34;65.90;;;28.17;;
28796;SDS011;24974;54.444;18.560;2023-03-31T17:05:05;72.03;;;30.38;;
28796;SDS011;24974;54.444;18.560;2023-03-31T17:07:36;73.70;;;26.90;;
28796;SDS011;24974;54.444;18.560;2023-03-31T17:10:07;72.65;;;26.35;;
28796;SDS011;24974;54.444;18.560;2023-03-31T17:12:39;62.08;;;27.33;;
28796;SDS011;24974;54.444;18.560;2023-03-31T17:15:10;51.15;;;19.25;;
28796;SDS011;24974;54.444;18.560;2023-03-31T17:17:41;55.95;;;18.77;;
28796;SDS011;24974;54.444;18.560;2023-03-31T17:20:12;54.22;;;16.70;;
28796;SDS011;24974;54.444;18.560;2023-03-31T17:22:43;46.05;;;18.63;;
28796;SDS011;24974;54.444;18.560;2023-03-31T17:25:16;48.10;;;18.35;;
28796;SDS011;24974;54.444;18.560;2023-03-31T17:27:48;46.63;;;18.83;;
28796;SDS011;24974;54.444;18.560;2023-03-31T17:30:18;56.92;;;19.90;;
28796;SDS011;24974;54.444;18.560;2023-03-31T17:32:49;50.80;;;19.50;;
28796;SDS011;24974;54.444;18.560;2023-03-31T17:35:20;46.75;;;20.63;;
28796;SDS011;24974;54.444;18.560;2023-03-31T17:37:51;47.97;;;16.85;;
28796;SDS011;24974;54.444;18.560;2023-03-31T17:40:23;37.47;;;17.50;;
28796;SDS011;24974;54.444;18.560;2023-03-31T17:42:54;56.38;;;17.52;;
28796;SDS011;24974;54.444;18.560;2023-03-31T17:45:24;50.40;;;18.33;;
28796;SDS011;24974;54.444;18.560;2023-03-31T17:47:55;45.15;;;18.73;;
28796;SDS011;24974;54.444;18.560;2023-03-31T17:50:26;45.00;;;18.45;;
28796;SDS011;24974;54.444;18.560;2023-03-31T17:52:57;40.60;;;18.20;;
28796;SDS011;24974;54.444;18.560;2023-03-31T17:55:28;67.82;;;18.45;;
28796;SDS011;24974;54.444;18.560;2023-03-31T17:57:59;65.45;;;18.42;;
28796;SDS011;24974;54.444;18.560;2023-03-31T18:00:30;102.78;;;17.52;;
28796;SDS011;24974;54.444;18.560;2023-03-31T18:03:01;39.95;;;16.83;;
28796;SDS011;24974;54.444;18.560;2023-03-31T18:05:34;65.03;;;36.67;;
28796;SDS011;24974;54.444;18.560;2023-03-31T18:08:05;112.30;;;22.27;;
28796;SDS011;24974;54.444;18.560;2023-03-31T18:10:36;106.38;;;19.25;;
28796;SDS011;24974;54.444;18.560;2023-03-31T18:13:07;89.88;;;17.30;;
28796;SDS011;24974;54.444;18.560;2023-03-31T18:15:44;81.55;;;20.40;;
28796;SDS011;24974;54.444;18.560;2023-03-31T18:18:16;142.52;;;17.95;;
28796;SDS011;24974;54.444;18.560;2023-03-31T18:20:47;172.05;;;15.55;;
28796;SDS011;24974;54.444;18.560;2023-03-31T18:23:18;59.25;;;13.07;;
28796;SDS011;24974;54.444;18.560;2023-03-31T18:25:49;114.28;;;13.25;;
28796;SDS011;24974;54.444;18.560;2023-03-31T18:28:20;97.82;;;14.23;;
28796;SDS011;24974;54.444;18.560;2023-03-31T18:30:51;47.63;;;15.25;;
28796;SDS011;24974;54.444;18.560;2023-03-31T18:33:22;68.03;;;14.40;;
28796;SDS011;24974;54.444;18.560;2023-03-31T18:35:53;162.35;;;23.27;;
28796;SDS011;24974;54.444;18.560;2023-03-31T18:38:27;114.25;;;16.00;;
28796;SDS011;24974;54.444;18.560;2023-03-31T18:40:58;153.73;;;17.08;;
28796;SDS011;24974;54.444;18.560;2023-03-31T18:43:29;78.03;;;17.50;;
28796;SDS011;24974;54.444;18.560;2023-03-31T18:46:00;104.40;;;15.75;;
